createdAt,value
2018-07-21T00:01:14.000Z,99814
2018-07-21T00:02:14.000Z,99815
2018-07-21T00:03:58.000Z,99815
2018-07-21T00:05:14.000Z,99818
2018-07-21T00:07:14.000Z,99815
2018-07-21T00:08:14.000Z,99819
2018-07-21T00:09:14.000Z,99822
2018-07-21T00:11:14.000Z,99814
2018-07-21T00:13:14.000Z,99820
2018-07-21T00:14:14.000Z,99820
2018-07-21T00:15:14.000Z,99819
2018-07-21T00:17:14.000Z,99816
2018-07-21T00:18:14.000Z,99811
2018-07-21T00:20:14.000Z,99812
2018-07-21T00:21:14.000Z,99813
2018-07-21T00:22:58.000Z,99814
2018-07-21T00:24:14.000Z,99814
2018-07-21T00:25:14.000Z,99805
2018-07-21T00:26:14.000Z,99806
2018-07-21T00:28:14.000Z,99809
2018-07-21T00:29:14.000Z,99813
2018-07-21T00:31:14.000Z,99812
2018-07-21T00:33:14.000Z,99809
2018-07-21T00:35:14.000Z,99807
2018-07-21T00:36:14.000Z,99808
2018-07-21T00:38:14.000Z,99803
2018-07-21T00:39:14.000Z,99807
2018-07-21T00:41:14.000Z,99803
2018-07-21T00:43:14.000Z,99802
2018-07-21T00:45:14.000Z,99799
2018-07-21T00:46:59.000Z,99802
2018-07-21T00:48:14.000Z,99803
2018-07-21T00:50:14.000Z,99811
2018-07-21T00:52:14.000Z,99812
2018-07-21T00:54:14.000Z,99816
2018-07-21T00:56:14.000Z,99820
2018-07-21T00:58:14.000Z,99815
2018-07-21T01:00:14.000Z,99815
2018-07-21T01:02:14.000Z,99813
2018-07-21T01:04:14.000Z,99815
2018-07-21T01:06:14.000Z,99810
2018-07-21T01:08:14.000Z,99808
2018-07-21T01:09:14.000Z,99805
2018-07-21T01:11:14.000Z,99800
2018-07-21T01:13:14.000Z,99799
2018-07-21T01:15:14.000Z,99798
2018-07-21T01:17:14.000Z,99801
2018-07-21T01:18:14.000Z,99802
2018-07-21T01:20:14.000Z,99800
2018-07-21T01:22:14.000Z,99798
2018-07-21T01:24:14.000Z,99795
2018-07-21T01:26:14.000Z,99790
2018-07-21T01:27:14.000Z,99791
2018-07-21T01:29:14.000Z,99796
2018-07-21T01:30:59.000Z,99797
2018-07-21T01:32:14.000Z,99799
2018-07-21T01:34:14.000Z,99807
2018-07-21T01:35:59.000Z,99797
2018-07-21T01:37:14.000Z,99803
2018-07-21T01:38:14.000Z,99806
2018-07-21T01:39:14.000Z,99804
2018-07-21T01:40:59.000Z,99803
2018-07-21T01:42:14.000Z,99801
2018-07-21T01:43:14.000Z,99801
2018-07-21T01:45:14.000Z,99806
2018-07-21T01:47:14.000Z,99806
2018-07-21T01:49:14.000Z,99804
2018-07-21T01:51:14.000Z,99806
2018-07-21T01:52:14.000Z,99807
2018-07-21T01:53:59.000Z,99805
2018-07-21T01:55:14.000Z,99806
2018-07-21T01:57:14.000Z,99804
2018-07-21T01:58:14.000Z,99806
2018-07-21T01:59:14.000Z,99805
2018-07-21T02:01:14.000Z,99811
2018-07-21T02:02:14.000Z,99813
2018-07-21T02:04:14.000Z,99812
2018-07-21T02:05:14.000Z,99813
2018-07-21T02:07:14.000Z,99813
2018-07-21T02:09:14.000Z,99817
2018-07-21T02:11:14.000Z,99817
2018-07-21T02:12:14.000Z,99822
2018-07-21T02:13:14.000Z,99815
2018-07-21T02:15:14.000Z,99816
2018-07-21T02:16:59.000Z,99816
2018-07-21T02:18:14.000Z,99809
2018-07-21T02:19:14.000Z,99814
2018-07-21T02:20:14.000Z,99810
2018-07-21T02:22:14.000Z,99806
2018-07-21T02:23:14.000Z,99807
2018-07-21T02:24:59.000Z,99800
2018-07-21T02:26:14.000Z,99796
2018-07-21T02:27:14.000Z,99796
2018-07-21T02:29:14.000Z,99793
2018-07-21T02:30:14.000Z,99796
2018-07-21T02:32:14.000Z,99795
2018-07-21T02:33:14.000Z,99795
2018-07-21T02:34:59.000Z,99788
2018-07-21T02:36:14.000Z,99787
2018-07-21T02:38:14.000Z,99783
2018-07-21T02:39:59.000Z,99781
2018-07-21T02:41:14.000Z,99776
2018-07-21T02:43:14.000Z,99771
2018-07-21T02:45:14.000Z,99781
2018-07-21T02:47:13.000Z,99779
2018-07-21T02:49:13.000Z,99777
2018-07-21T02:51:13.000Z,99780
2018-07-21T02:53:13.000Z,99774
2018-07-21T02:54:43.000Z,99775
2018-07-21T02:56:13.000Z,99775
2018-07-21T02:58:13.000Z,99774
2018-07-21T02:59:58.000Z,99776
2018-07-21T03:01:13.000Z,99780
2018-07-21T03:03:13.000Z,99776
2018-07-21T03:05:13.000Z,99771
2018-07-21T03:06:13.000Z,99774
2018-07-21T03:08:13.000Z,99775
2018-07-21T03:09:58.000Z,99776
2018-07-21T03:11:13.000Z,99777
2018-07-21T03:12:43.000Z,99776
2018-07-21T03:14:13.000Z,99782
2018-07-21T03:15:13.000Z,99780
2018-07-21T03:17:13.000Z,99776
2018-07-21T03:18:58.000Z,99777
2018-07-21T03:20:13.000Z,99771
2018-07-21T03:22:13.000Z,99778
2018-07-21T03:23:13.000Z,99769
2018-07-21T03:25:13.000Z,99772
2018-07-21T03:27:14.000Z,99773
2018-07-21T03:28:58.000Z,99770
2018-07-21T03:30:13.000Z,99769
2018-07-21T03:32:13.000Z,99769
2018-07-21T03:33:58.000Z,99767
2018-07-21T03:35:13.000Z,99767
2018-07-21T03:37:14.000Z,99765
2018-07-21T03:38:58.000Z,99763
2018-07-21T03:40:13.000Z,99757
2018-07-21T03:41:14.000Z,99758
2018-07-21T03:43:13.000Z,99760
2018-07-21T03:45:13.000Z,99759
2018-07-21T03:46:13.000Z,99760
2018-07-21T03:48:13.000Z,99765
2018-07-21T03:50:14.000Z,99769
2018-07-21T03:52:14.000Z,99764
2018-07-21T03:54:14.000Z,99769
2018-07-21T03:55:14.000Z,99771
2018-07-21T03:56:59.000Z,99769
2018-07-21T03:58:14.000Z,99771
2018-07-21T04:00:14.000Z,99767
2018-07-21T04:01:14.000Z,99768
2018-07-21T04:02:14.000Z,99766
2018-07-21T04:04:14.000Z,99767
2018-07-21T04:06:14.000Z,99770
2018-07-21T04:08:14.000Z,99766
2018-07-21T04:10:14.000Z,99763
2018-07-21T04:11:14.000Z,99759
2018-07-21T04:13:14.000Z,99756
2018-07-21T04:15:14.000Z,99755
2018-07-21T04:17:14.000Z,99755
2018-07-21T04:19:14.000Z,99760
2018-07-21T04:21:14.000Z,99762
2018-07-21T04:23:14.000Z,99771
2018-07-21T04:24:14.000Z,99773
2018-07-21T04:26:14.000Z,99770
2018-07-21T04:27:14.000Z,99767
2018-07-21T04:29:14.000Z,99773
2018-07-21T04:30:14.000Z,99778
2018-07-21T04:32:14.000Z,99772
2018-07-21T04:34:14.000Z,99775
2018-07-21T04:35:14.000Z,99774
2018-07-21T04:37:14.000Z,99773
2018-07-21T04:38:14.000Z,99771
2018-07-21T04:39:14.000Z,99767
2018-07-21T04:41:14.000Z,99763
2018-07-21T04:42:59.000Z,99760
2018-07-21T04:44:14.000Z,99754
2018-07-21T04:45:14.000Z,99754
2018-07-21T04:47:14.000Z,99758
2018-07-21T04:48:14.000Z,99752
2018-07-21T04:50:14.000Z,99757
2018-07-21T04:52:14.000Z,99756
2018-07-21T04:54:14.000Z,99754
2018-07-21T04:56:14.000Z,99753
2018-07-21T04:58:14.000Z,99761
2018-07-21T05:00:14.000Z,99761
2018-07-21T05:01:14.000Z,99756
2018-07-21T05:03:14.000Z,99765
2018-07-21T05:04:14.000Z,99766
2018-07-21T05:06:14.000Z,99772
2018-07-21T05:08:14.000Z,99764
2018-07-21T05:10:14.000Z,99771
2018-07-21T05:12:14.000Z,99769
2018-07-21T05:14:14.000Z,99766
2018-07-21T05:16:14.000Z,99768
2018-07-21T05:18:14.000Z,99766
2018-07-21T05:19:14.000Z,99767
2018-07-21T05:21:14.000Z,99767
2018-07-21T05:23:14.000Z,99770
2018-07-21T05:25:14.000Z,99764
2018-07-21T05:27:14.000Z,99772
2018-07-21T05:29:14.000Z,99771
2018-07-21T05:30:14.000Z,99770
2018-07-21T05:31:14.000Z,99772
2018-07-21T05:32:59.000Z,99774
2018-07-21T05:34:14.000Z,99771
2018-07-21T05:36:14.000Z,99775
2018-07-21T05:38:14.000Z,99778
2018-07-21T05:39:14.000Z,99778
2018-07-21T05:41:14.000Z,99784
2018-07-21T05:42:14.000Z,99784
2018-07-21T05:44:14.000Z,99787
2018-07-21T05:46:14.000Z,99790
2018-07-21T05:48:14.000Z,99796
2018-07-21T05:49:59.000Z,99801
2018-07-21T05:51:14.000Z,99797
2018-07-21T05:53:14.000Z,99805
2018-07-21T05:54:14.000Z,99802
2018-07-21T05:56:14.000Z,99804
2018-07-21T05:57:14.000Z,99805
2018-07-21T05:58:14.000Z,99804
2018-07-21T06:00:14.000Z,99805
2018-07-21T06:01:59.000Z,99809
2018-07-21T06:03:14.000Z,99806
2018-07-21T06:05:14.000Z,99819
2018-07-21T06:07:14.000Z,99819
2018-07-21T06:08:14.000Z,99822
2018-07-21T06:09:14.000Z,99826
2018-07-21T06:10:59.000Z,99819
2018-07-21T06:12:14.000Z,99823
2018-07-21T06:13:14.000Z,99821
2018-07-21T06:15:14.000Z,99822
2018-07-21T06:16:14.000Z,99824
2018-07-21T06:18:14.000Z,99834
2018-07-21T06:20:14.000Z,99841
2018-07-21T06:22:14.000Z,99838
2018-07-21T06:24:14.000Z,99840
2018-07-21T06:25:14.000Z,99844
2018-07-21T06:27:14.000Z,99842
2018-07-21T06:29:14.000Z,99846
2018-07-21T06:31:14.000Z,99837
2018-07-21T06:32:59.000Z,99837
2018-07-21T06:34:14.000Z,99839
2018-07-21T06:35:59.000Z,99843
2018-07-21T06:37:14.000Z,99841
2018-07-21T06:38:14.000Z,99850
2018-07-21T06:40:14.000Z,99850
2018-07-21T06:41:14.000Z,99850
2018-07-21T06:43:14.000Z,99844
2018-07-21T06:45:14.000Z,99848
2018-07-21T06:47:14.000Z,99850
2018-07-21T06:48:59.000Z,99855
2018-07-21T06:50:14.000Z,99858
2018-07-21T06:51:14.000Z,99857
2018-07-21T06:52:14.000Z,99858
2018-07-21T06:54:14.000Z,99863
2018-07-21T06:56:14.000Z,99864
2018-07-21T06:57:43.000Z,99862
2018-07-21T06:59:14.000Z,99866
2018-07-21T07:00:14.000Z,99866
2018-07-21T07:02:14.000Z,99870
2018-07-21T07:04:14.000Z,99882
2018-07-21T07:06:14.000Z,99888
2018-07-21T07:08:14.000Z,99885
2018-07-21T07:09:14.000Z,99890
2018-07-21T07:11:14.000Z,99886
2018-07-21T07:13:14.000Z,99887
2018-07-21T07:15:14.000Z,99883
2018-07-21T07:16:14.000Z,99888
2018-07-21T07:18:14.000Z,99877
2018-07-21T07:20:14.000Z,99874
2018-07-21T07:22:14.000Z,99876
2018-07-21T07:23:14.000Z,99875
2018-07-21T07:25:14.000Z,99885
2018-07-21T07:27:14.000Z,99872
2018-07-21T07:29:14.000Z,99874
2018-07-21T07:30:14.000Z,99875
2018-07-21T07:31:14.000Z,99878
2018-07-21T07:32:59.000Z,99877
2018-07-21T07:34:14.000Z,99870
2018-07-21T07:35:14.000Z,99873
2018-07-21T07:37:14.000Z,99875
2018-07-21T07:39:14.000Z,99873
2018-07-21T07:40:59.000Z,99880
2018-07-21T07:42:14.000Z,99878
2018-07-21T07:44:14.000Z,99880
2018-07-21T07:46:14.000Z,99878
2018-07-21T07:48:14.000Z,99881
2018-07-21T07:49:14.000Z,99879
2018-07-21T07:50:14.000Z,99880
2018-07-21T07:52:14.000Z,99887
2018-07-21T07:54:14.000Z,99879
2018-07-21T07:55:59.000Z,99884
2018-07-21T07:57:14.000Z,99879
2018-07-21T07:59:14.000Z,99880
2018-07-21T08:00:14.000Z,99885
2018-07-21T08:01:14.000Z,99879
2018-07-21T08:03:14.000Z,99875
2018-07-21T08:05:14.000Z,99881
2018-07-21T08:07:14.000Z,99877
2018-07-21T08:09:14.000Z,99878
2018-07-21T08:11:14.000Z,99874
2018-07-21T08:12:14.000Z,99867
2018-07-21T08:14:14.000Z,99868
2018-07-21T08:15:14.000Z,99866
2018-07-21T08:17:14.000Z,99866
2018-07-21T08:18:14.000Z,99859
2018-07-21T08:20:14.000Z,99861
2018-07-21T08:21:58.000Z,99853
2018-07-21T08:23:14.000Z,99864
2018-07-21T08:24:58.000Z,99856
2018-07-21T08:26:14.000Z,99862
2018-07-21T08:28:14.000Z,99861
2018-07-21T08:29:14.000Z,99864
2018-07-21T08:31:14.000Z,99858
2018-07-21T08:32:58.000Z,99861
2018-07-21T08:33:58.000Z,99856
2018-07-21T08:35:14.000Z,99859
2018-07-21T08:36:14.000Z,99852
2018-07-21T08:38:14.000Z,99849
2018-07-21T08:39:14.000Z,99849
2018-07-21T08:40:14.000Z,99846
2018-07-21T08:42:14.000Z,99855
2018-07-21T08:43:58.000Z,99856
2018-07-21T08:45:14.000Z,99857
2018-07-21T08:47:14.000Z,99854
2018-07-21T08:48:58.000Z,99854
2018-07-21T08:50:14.000Z,99848
2018-07-21T08:51:14.000Z,99852
2018-07-21T08:52:14.000Z,99856
2018-07-21T08:53:58.000Z,99851
2018-07-21T08:55:14.000Z,99849
2018-07-21T08:56:14.000Z,99850
2018-07-21T08:57:58.000Z,99851
2018-07-21T08:59:14.000Z,99846
2018-07-21T09:01:14.000Z,99849
2018-07-21T09:03:14.000Z,99846
2018-07-21T09:04:14.000Z,99849
2018-07-21T09:06:14.000Z,99850
2018-07-21T09:08:14.000Z,99849
2018-07-21T09:09:14.000Z,99852
2018-07-21T09:11:14.000Z,99851
2018-07-21T09:13:14.000Z,99853
2018-07-21T09:14:14.000Z,99854
2018-07-21T09:15:14.000Z,99849
2018-07-21T09:17:14.000Z,99851
2018-07-21T09:19:14.000Z,99857
2018-07-21T09:20:14.000Z,99854
2018-07-21T09:22:14.000Z,99860
2018-07-21T09:23:14.000Z,99858
2018-07-21T09:24:59.000Z,99865
2018-07-21T09:26:14.000Z,99867
2018-07-21T09:27:59.000Z,99859
2018-07-21T09:29:14.000Z,99864
2018-07-21T09:30:14.000Z,99860
2018-07-21T09:32:14.000Z,99859
2018-07-21T09:33:58.000Z,99858
2018-07-21T09:35:14.000Z,99864
2018-07-21T09:36:14.000Z,99864
2018-07-21T09:38:14.000Z,99863
2018-07-21T09:40:14.000Z,99863
2018-07-21T09:41:59.000Z,99787
2018-07-21T09:44:14.000Z,99864
2018-07-21T09:45:58.000Z,99861
2018-07-21T09:47:14.000Z,99865
2018-07-21T09:49:14.000Z,99863
2018-07-21T09:50:58.000Z,99862
2018-07-21T09:52:14.000Z,99859
2018-07-21T09:54:14.000Z,99867
2018-07-21T09:56:14.000Z,99865
2018-07-21T09:57:58.000Z,99867
2018-07-21T09:59:14.000Z,99874
2018-07-21T10:01:14.000Z,99870
2018-07-21T10:03:14.000Z,99880
2018-07-21T10:05:14.000Z,99871
2018-07-21T10:07:14.000Z,99868
2018-07-21T10:08:14.000Z,99875
2018-07-21T10:10:14.000Z,99873
2018-07-21T10:11:14.000Z,99872
2018-07-21T10:13:14.000Z,99875
2018-07-21T10:15:14.000Z,99879
2018-07-21T10:17:14.000Z,99874
2018-07-21T10:19:14.000Z,99879
2018-07-21T10:20:14.000Z,99877
2018-07-21T10:22:14.000Z,99880
2018-07-21T10:23:58.000Z,99877
2018-07-21T10:25:14.000Z,99877
2018-07-21T10:26:14.000Z,99876
2018-07-21T10:27:14.000Z,99881
2018-07-21T10:29:14.000Z,99874
2018-07-21T10:31:14.000Z,99872
2018-07-21T10:32:43.000Z,99872
2018-07-21T10:34:14.000Z,99875
2018-07-21T10:36:14.000Z,99869
2018-07-21T10:37:58.000Z,99874
2018-07-21T10:39:14.000Z,99878
2018-07-21T10:40:14.000Z,99867
2018-07-21T10:42:14.000Z,99868
2018-07-21T10:43:14.000Z,99868
2018-07-21T10:45:14.000Z,99864
2018-07-21T10:47:14.000Z,99866
2018-07-21T10:49:14.000Z,99864
2018-07-21T10:50:14.000Z,99861
2018-07-21T10:52:14.000Z,99861
2018-07-21T10:53:58.000Z,99859
2018-07-21T10:55:14.000Z,99853
2018-07-21T10:56:14.000Z,99865
2018-07-21T10:58:14.000Z,99857
2018-07-21T10:59:14.000Z,99864
2018-07-21T11:00:14.000Z,99859
2018-07-21T11:02:14.000Z,99857
2018-07-21T11:03:14.000Z,99860
2018-07-21T11:04:14.000Z,99858
2018-07-21T11:05:58.000Z,99853
2018-07-21T11:07:14.000Z,99847
2018-07-21T11:09:14.000Z,99855
2018-07-21T11:11:14.000Z,99856
2018-07-21T11:12:14.000Z,99851
2018-07-21T11:14:14.000Z,99850
2018-07-21T11:16:14.000Z,99851
2018-07-21T11:17:59.000Z,99853
2018-07-21T11:19:14.000Z,99850
2018-07-21T11:20:14.000Z,99854
2018-07-21T11:22:14.000Z,99857
2018-07-21T11:24:14.000Z,99847
2018-07-21T11:26:14.000Z,99856
2018-07-21T11:27:14.000Z,99852
2018-07-21T11:29:14.000Z,99850
2018-07-21T11:31:14.000Z,99853
2018-07-21T11:33:14.000Z,99853
2018-07-21T11:34:14.000Z,99853
2018-07-21T11:36:14.000Z,99845
2018-07-21T11:38:14.000Z,99848
2018-07-21T11:39:14.000Z,99852
2018-07-21T11:41:14.000Z,99853
2018-07-21T11:43:14.000Z,99854
2018-07-21T11:45:14.000Z,99855
2018-07-21T11:46:14.000Z,99853
2018-07-21T11:48:14.000Z,99853
2018-07-21T11:50:14.000Z,99849
2018-07-21T11:51:58.000Z,99857
2018-07-21T11:53:14.000Z,99852
2018-07-21T11:55:14.000Z,99852
2018-07-21T11:57:14.000Z,99852
2018-07-21T11:58:14.000Z,99855
2018-07-21T12:00:14.000Z,99852
2018-07-21T12:02:14.000Z,99855
2018-07-21T12:04:14.000Z,99854
2018-07-21T12:06:14.000Z,99854
2018-07-21T12:08:14.000Z,99857
2018-07-21T12:10:14.000Z,99858
2018-07-21T12:11:14.000Z,99857
2018-07-21T12:13:14.000Z,99862
2018-07-21T12:14:14.000Z,99863
2018-07-21T12:16:14.000Z,99861
2018-07-21T12:17:59.000Z,99853
2018-07-21T12:19:14.000Z,99853
2018-07-21T12:21:14.000Z,99851
2018-07-21T12:22:58.000Z,99851
2018-07-21T12:24:14.000Z,99849
2018-07-21T12:26:14.000Z,99850
2018-07-21T12:27:14.000Z,99850
2018-07-21T12:28:14.000Z,99852
2018-07-21T12:30:14.000Z,99846
2018-07-21T12:32:14.000Z,99845
2018-07-21T12:34:14.000Z,99844
2018-07-21T12:35:14.000Z,99838
2018-07-21T12:37:14.000Z,99845
2018-07-21T12:38:14.000Z,99840
2018-07-21T12:39:14.000Z,99841
2018-07-21T12:40:43.000Z,99840
2018-07-21T12:42:14.000Z,99837
2018-07-21T12:44:14.000Z,99838
2018-07-21T12:45:14.000Z,99842
2018-07-21T12:47:14.000Z,99835
2018-07-21T12:49:14.000Z,99835
2018-07-21T12:51:14.000Z,99840
2018-07-21T12:52:14.000Z,99843
2018-07-21T12:54:14.000Z,99837
2018-07-21T12:56:14.000Z,99835
2018-07-21T12:57:58.000Z,99842
2018-07-21T12:59:14.000Z,99832
2018-07-21T13:01:14.000Z,99840
2018-07-21T13:03:14.000Z,99840
2018-07-21T13:05:14.000Z,99838
2018-07-21T13:06:14.000Z,99843
2018-07-21T13:08:14.000Z,99841
2018-07-21T13:10:14.000Z,99839
2018-07-21T13:12:14.000Z,99840
2018-07-21T13:14:14.000Z,99831
2018-07-21T13:16:14.000Z,99839
2018-07-21T13:18:14.000Z,99835
2018-07-21T13:20:14.000Z,99833
2018-07-21T13:21:14.000Z,99828
2018-07-21T13:23:14.000Z,99832
2018-07-21T13:25:14.000Z,99831
2018-07-21T13:26:58.000Z,99827
2018-07-21T13:28:14.000Z,99829
2018-07-21T13:30:14.000Z,99825
2018-07-21T13:32:14.000Z,99830
2018-07-21T13:34:14.000Z,99829
2018-07-21T13:36:14.000Z,99826
2018-07-21T13:37:14.000Z,99828
2018-07-21T13:38:58.000Z,99821
2018-07-21T13:40:14.000Z,99825
2018-07-21T13:41:58.000Z,99816
2018-07-21T13:43:14.000Z,99818
2018-07-21T13:45:14.000Z,99823
2018-07-21T13:47:14.000Z,99824
2018-07-21T13:49:14.000Z,99820
2018-07-21T13:51:14.000Z,99816
2018-07-21T13:52:58.000Z,99821
2018-07-21T13:54:14.000Z,99813
2018-07-21T13:56:14.000Z,99815
2018-07-21T13:58:14.000Z,99812
2018-07-21T13:59:58.000Z,99812
2018-07-21T14:01:14.000Z,99813
2018-07-21T14:02:58.000Z,99813
2018-07-21T14:04:14.000Z,99808
2018-07-21T14:05:43.000Z,99808
2018-07-21T14:06:59.000Z,99718
2018-07-21T14:09:14.000Z,99811
2018-07-21T14:11:14.000Z,99812
2018-07-21T14:13:14.000Z,99813
2018-07-21T14:14:14.000Z,99804
2018-07-21T14:16:14.000Z,99799
2018-07-21T14:17:14.000Z,99801
2018-07-21T14:18:58.000Z,99801
2018-07-21T14:20:14.000Z,99803
2018-07-21T14:22:14.000Z,99799
2018-07-21T14:23:14.000Z,99801
2018-07-21T14:25:14.000Z,99798
2018-07-21T14:27:14.000Z,99801
2018-07-21T14:29:14.000Z,99802
2018-07-21T14:31:14.000Z,99807
2018-07-21T14:33:14.000Z,99807
2018-07-21T14:35:14.000Z,99816
2018-07-21T14:37:14.000Z,99810
2018-07-21T14:38:14.000Z,99812
2018-07-21T14:40:14.000Z,99816
2018-07-21T14:41:59.000Z,99815
2018-07-21T14:43:14.000Z,99824
2018-07-21T14:44:14.000Z,99832
2018-07-21T14:46:14.000Z,99831
2018-07-21T14:47:44.000Z,99837
2018-07-21T14:49:14.000Z,99842
2018-07-21T14:50:59.000Z,99856
2018-07-21T14:52:14.000Z,99859
2018-07-21T14:54:14.000Z,99872
2018-07-21T14:56:14.000Z,99887
2018-07-21T14:58:14.000Z,99878
2018-07-21T14:59:59.000Z,99889
2018-07-21T15:01:14.000Z,99893
2018-07-21T15:02:14.000Z,99899
2018-07-21T15:03:59.000Z,99906
2018-07-21T15:05:14.000Z,99905
2018-07-21T15:06:59.000Z,99913
2018-07-21T15:08:14.000Z,99911
2018-07-21T15:09:14.000Z,99915
2018-07-21T15:11:14.000Z,99914
2018-07-21T15:12:14.000Z,99920
2018-07-21T15:13:59.000Z,99923
2018-07-21T15:15:14.000Z,99915
2018-07-21T15:16:14.000Z,99917
2018-07-21T15:17:14.000Z,99915
2018-07-21T15:19:14.000Z,99916
2018-07-21T15:20:14.000Z,99911
2018-07-21T15:22:14.000Z,99909
2018-07-21T15:24:14.000Z,99912
2018-07-21T15:26:14.000Z,99910
2018-07-21T15:28:14.000Z,99910
2018-07-21T15:29:59.000Z,99906
2018-07-21T15:31:14.000Z,99907
2018-07-21T15:33:14.000Z,99908
2018-07-21T15:34:59.000Z,99910
2018-07-21T15:36:14.000Z,99911
2018-07-21T15:37:14.000Z,99912
2018-07-21T15:39:14.000Z,99922
2018-07-21T15:41:14.000Z,99923
2018-07-21T15:43:14.000Z,99924
2018-07-21T15:45:14.000Z,99923
2018-07-21T15:46:14.000Z,99926
2018-07-21T15:48:14.000Z,99916
2018-07-21T15:50:14.000Z,99920
2018-07-21T15:51:59.000Z,99923
2018-07-21T15:53:14.000Z,99920
2018-07-21T15:55:14.000Z,99920
2018-07-21T15:57:14.000Z,99921
2018-07-21T15:59:14.000Z,99918
2018-07-21T16:01:14.000Z,99909
2018-07-21T16:02:14.000Z,99910
2018-07-21T16:03:14.000Z,99909
2018-07-21T16:04:14.000Z,99909
2018-07-21T16:06:14.000Z,99905
2018-07-21T16:08:14.000Z,99900
2018-07-21T16:09:43.000Z,99906
2018-07-21T16:11:14.000Z,99903
2018-07-21T16:12:14.000Z,99899
2018-07-21T16:14:14.000Z,99891
2018-07-21T16:15:14.000Z,99891
2018-07-21T16:17:14.000Z,99881
2018-07-21T16:18:14.000Z,99876
2018-07-21T16:19:59.000Z,99867
2018-07-21T16:21:14.000Z,99868
2018-07-21T16:22:14.000Z,99867
2018-07-21T16:23:59.000Z,99860
2018-07-21T16:25:14.000Z,99858
2018-07-21T16:26:14.000Z,99853
2018-07-21T16:28:14.000Z,99855
2018-07-21T16:29:14.000Z,99856
2018-07-21T16:30:14.000Z,99854
2018-07-21T16:32:14.000Z,99857
2018-07-21T16:33:43.000Z,99853
2018-07-21T16:35:14.000Z,99854
2018-07-21T16:36:14.000Z,99850
2018-07-21T16:38:14.000Z,99850
2018-07-21T16:39:58.000Z,99850
2018-07-21T16:41:14.000Z,99855
2018-07-21T16:42:14.000Z,99853
2018-07-21T16:43:14.000Z,99857
2018-07-21T16:45:14.000Z,99862
2018-07-21T16:46:43.000Z,99873
2018-07-21T16:48:14.000Z,99876
2018-07-21T16:50:14.000Z,99874
2018-07-21T16:52:14.000Z,99876
2018-07-21T16:53:58.000Z,99880
2018-07-21T16:55:14.000Z,99880
2018-07-21T16:56:14.000Z,99879
2018-07-21T16:58:14.000Z,99871
2018-07-21T16:59:43.000Z,99773
2018-07-21T17:01:14.000Z,99861
2018-07-21T17:03:14.000Z,99860
2018-07-21T17:05:14.000Z,99859
2018-07-21T17:07:14.000Z,99862
2018-07-21T17:08:14.000Z,99860
2018-07-21T17:10:14.000Z,99854
2018-07-21T17:12:14.000Z,99847
2018-07-21T17:14:14.000Z,99853
2018-07-21T17:16:14.000Z,99849
2018-07-21T17:18:14.000Z,99848
2018-07-21T17:20:14.000Z,99844
2018-07-21T17:21:14.000Z,99841
2018-07-21T17:23:14.000Z,99844
2018-07-21T17:25:14.000Z,99844
2018-07-21T17:27:14.000Z,99846
2018-07-21T17:28:14.000Z,99851
2018-07-21T17:29:14.000Z,99851
2018-07-21T17:31:14.000Z,99853
2018-07-21T17:33:14.000Z,99850
2018-07-21T17:35:14.000Z,99855
2018-07-21T17:37:14.000Z,99850
2018-07-21T17:38:14.000Z,99848
2018-07-21T17:40:14.000Z,99842
2018-07-21T17:42:14.000Z,99844
2018-07-21T17:43:14.000Z,99844
2018-07-21T17:45:14.000Z,99837
2018-07-21T17:46:59.000Z,99840
2018-07-21T17:48:14.000Z,99834
2018-07-21T17:49:14.000Z,99841
2018-07-21T17:51:14.000Z,99843
2018-07-21T17:52:14.000Z,99840
2018-07-21T17:54:14.000Z,99843
2018-07-21T17:56:14.000Z,99839
2018-07-21T17:57:44.000Z,99838
2018-07-21T17:59:14.000Z,99840
2018-07-21T18:01:14.000Z,99837
2018-07-21T18:03:14.000Z,99839
2018-07-21T18:05:14.000Z,99839
2018-07-21T18:07:14.000Z,99839
2018-07-21T18:09:14.000Z,99839
2018-07-21T18:10:59.000Z,99840
2018-07-21T18:12:14.000Z,99837
2018-07-21T18:14:14.000Z,99842
2018-07-21T18:16:14.000Z,99838
2018-07-21T18:18:14.000Z,99832
2018-07-21T18:19:14.000Z,99833
2018-07-21T18:21:14.000Z,99832
2018-07-21T18:22:59.000Z,99770
2018-07-21T18:25:14.000Z,99832
2018-07-21T18:26:14.000Z,99829
2018-07-21T18:28:14.000Z,99836
2018-07-21T18:29:59.000Z,99833
2018-07-21T18:31:14.000Z,99833
2018-07-21T18:32:14.000Z,99837
2018-07-21T18:34:14.000Z,99834
2018-07-21T18:36:14.000Z,99828
2018-07-21T18:38:14.000Z,99835
2018-07-21T18:40:14.000Z,99834
2018-07-21T18:41:14.000Z,99836
2018-07-21T18:43:14.000Z,99837
2018-07-21T18:45:14.000Z,99835
2018-07-21T18:47:14.000Z,99837
2018-07-21T18:48:59.000Z,99840
2018-07-21T18:50:14.000Z,99841
2018-07-21T18:51:14.000Z,99841
2018-07-21T18:53:14.000Z,99843
2018-07-21T18:54:14.000Z,99848
2018-07-21T18:56:14.000Z,99852
2018-07-21T18:57:59.000Z,99847
2018-07-21T18:59:14.000Z,99851
2018-07-21T19:01:14.000Z,99855
2018-07-21T19:03:14.000Z,99853
2018-07-21T19:05:14.000Z,99857
2018-07-21T19:06:59.000Z,99861
2018-07-21T19:08:14.000Z,99876
2018-07-21T19:10:14.000Z,99878
2018-07-21T19:12:14.000Z,99879
2018-07-21T19:13:14.000Z,99879
2018-07-21T19:15:14.000Z,99875
2018-07-21T19:17:14.000Z,99875
2018-07-21T19:19:14.000Z,99880
2018-07-21T19:21:14.000Z,99879
2018-07-21T19:22:14.000Z,99880
2018-07-21T19:23:14.000Z,99877
2018-07-21T19:25:14.000Z,99880
2018-07-21T19:26:14.000Z,99882
2018-07-21T19:28:14.000Z,99884
2018-07-21T19:30:14.000Z,99898
2018-07-21T19:31:14.000Z,99895
2018-07-21T19:33:14.000Z,99896
2018-07-21T19:35:14.000Z,99894
2018-07-21T19:36:59.000Z,99895
2018-07-21T19:38:14.000Z,99898
2018-07-21T19:40:14.000Z,99896
2018-07-21T19:42:14.000Z,99893
2018-07-21T19:43:58.000Z,99891
2018-07-21T19:45:14.000Z,99896
2018-07-21T19:46:14.000Z,99893
2018-07-21T19:48:14.000Z,99898
2018-07-21T19:49:14.000Z,99898
2018-07-21T19:50:58.000Z,99905
2018-07-21T19:52:14.000Z,99900
2018-07-21T19:53:14.000Z,99906
2018-07-21T19:54:14.000Z,99901
2018-07-21T19:56:14.000Z,99907
2018-07-21T19:58:14.000Z,99901
2018-07-21T19:59:14.000Z,99905
2018-07-21T20:00:43.000Z,99911
2018-07-21T20:02:14.000Z,99904
2018-07-21T20:04:14.000Z,99916
2018-07-21T20:06:14.000Z,99913
2018-07-21T20:08:14.000Z,99919
2018-07-21T20:09:58.000Z,99918
2018-07-21T20:11:14.000Z,99925
2018-07-21T20:13:14.000Z,99925
2018-07-21T20:15:14.000Z,99925
2018-07-21T20:17:14.000Z,99926
2018-07-21T20:19:14.000Z,99930
2018-07-21T20:21:14.000Z,99928
2018-07-21T20:23:14.000Z,99926
2018-07-21T20:24:14.000Z,99931
2018-07-21T20:25:58.000Z,99929
2018-07-21T20:27:14.000Z,99930
2018-07-21T20:29:14.000Z,99929
2018-07-21T20:30:14.000Z,99932
2018-07-21T20:32:14.000Z,99927
2018-07-21T20:33:14.000Z,99927
2018-07-21T20:34:58.000Z,99921
2018-07-21T20:36:14.000Z,99924
2018-07-21T20:37:14.000Z,99923
2018-07-21T20:39:14.000Z,99924
2018-07-21T20:41:14.000Z,99923
2018-07-21T20:42:14.000Z,99921
2018-07-21T20:43:58.000Z,99924
2018-07-21T20:45:14.000Z,99923
2018-07-21T20:47:14.000Z,99921
2018-07-21T20:49:14.000Z,99927
2018-07-21T20:50:59.000Z,99925
2018-07-21T20:52:14.000Z,99923
2018-07-21T20:54:14.000Z,99930
2018-07-21T20:55:59.000Z,99929
2018-07-21T20:57:14.000Z,99926
2018-07-21T20:58:14.000Z,99928
2018-07-21T21:00:14.000Z,99931